Huvudsida
METAR-TAF:

METAR-TAF

Flygplatser :

Genèves internationella flygplats

Genève, Schweiz

latitud: 46-15N, longitud: 006-08E, höjd: 420 m

Aktuellt väderrapport

Denna rapport gjordes för 12 minuter sedan, klockan 09:50 UTC
Vind 17 kt från nordost
Temperatur 8°C
Fuktighet 46%
Tryck 1030 hPa
Sikt 10 km eller mer
Inga moln under 1 500 m eller inga cumulonimbus

METAR: LSGG 200950Z 04017KT CAVOK 08/M03 Q1030 NOSIG

Tid: 11:02 (10:02 UTC)

Väderprognos

Denna rapport gjordes för 1 timme och 37 minuter sedan, klockan 08:25 UTC
Prognos gäller från 20 kl. 09 UTC till 21 kl. 15 UTC
Vind 15 kt från nordost i byarna ända upp till 30 kt
Sikt 10 km eller mer
Inga moln under 1 500 m eller inga cumulonimbus
Blir
från 20 kl. 20 UTC till 20 kl. 22 UTC
Vind 3 kt varierande vindriktning
Blir
från 21 kl. 09 UTC till 21 kl. 11 UTC
Vind 8 kt från nordost

TAF: LSGG 200825Z 2009/2115 05015G30KT CAVOK TX12/2015Z TN01/2106Z TX14/2115Z BECMG 2020/2022 VRB03KT BECMG 2109/2111 05008KT

Aktuella väderrapporter och prognoser från 4000 flygplatser (METAR- och TAF-rapporter).

De tillgängliga stationerna syns som gula och röda prickar på kartan.

För musen över prickarna för att se namnen på stationerna.

Klicka sedan för att få väderrapporter och prognoser.

För att ändra kartan: Klicka på de gröna knapparna med ett svart kors på för att zooma in; den gröna knappen med ett streck på för att zooma ut; eller på de gröna pilarna för angränsande kartor.


METAR-TAF: